sensor_id;sensor_type;location;lat;lon;timestamp;P1;durP1;ratioP1;P2;durP2;ratioP2
74665;SDS011;63193;50.106;8.694;2022-09-25T00:00:44;9.17;;;4.70;;
74665;SDS011;63193;50.106;8.694;2022-09-25T00:03:12;9.53;;;4.83;;
74665;SDS011;63193;50.106;8.694;2022-09-25T00:05:39;12.53;;;5.20;;
74665;SDS011;63193;50.106;8.694;2022-09-25T00:08:05;9.97;;;5.37;;
74665;SDS011;63193;50.106;8.694;2022-09-25T00:10:32;12.57;;;6.77;;
74665;SDS011;63193;50.106;8.694;2022-09-25T00:12:58;12.13;;;5.90;;
74665;SDS011;63193;50.106;8.694;2022-09-25T00:15:23;10.67;;;5.57;;
74665;SDS011;63193;50.106;8.694;2022-09-25T00:17:50;9.80;;;5.40;;
74665;SDS011;63193;50.106;8.694;2022-09-25T00:20:16;10.50;;;5.33;;
74665;SDS011;63193;50.106;8.694;2022-09-25T00:22:44;12.20;;;6.17;;
74665;SDS011;63193;50.106;8.694;2022-09-25T00:25:13;12.73;;;5.97;;
74665;SDS011;63193;50.106;8.694;2022-09-25T00:27:40;11.97;;;6.27;;
74665;SDS011;63193;50.106;8.694;2022-09-25T00:30:07;12.80;;;6.30;;
74665;SDS011;63193;50.106;8.694;2022-09-25T00:32:35;13.53;;;6.80;;
74665;SDS011;63193;50.106;8.694;2022-09-25T00:35:01;11.93;;;6.43;;
74665;SDS011;63193;50.106;8.694;2022-09-25T00:37:26;14.97;;;6.93;;
74665;SDS011;63193;50.106;8.694;2022-09-25T00:39:53;16.07;;;7.17;;
74665;SDS011;63193;50.106;8.694;2022-09-25T00:42:20;14.43;;;7.27;;
74665;SDS011;63193;50.106;8.694;2022-09-25T00:44:56;12.60;;;6.40;;
74665;SDS011;63193;50.106;8.694;2022-09-25T00:47:40;13.90;;;5.63;;
74665;SDS011;63193;50.106;8.694;2022-09-25T00:50:19;12.63;;;6.03;;
74665;SDS011;63193;50.106;8.694;2022-09-25T00:53:08;12.57;;;6.43;;
74665;SDS011;63193;50.106;8.694;2022-09-25T00:55:55;13.50;;;6.23;;
74665;SDS011;63193;50.106;8.694;2022-09-25T00:58:23;13.10;;;6.37;;
74665;SDS011;63193;50.106;8.694;2022-09-25T01:00:52;12.17;;;6.47;;
74665;SDS011;63193;50.106;8.694;2022-09-25T01:03:18;13.17;;;6.80;;
74665;SDS011;63193;50.106;8.694;2022-09-25T01:05:45;12.90;;;6.00;;
74665;SDS011;63193;50.106;8.694;2022-09-25T01:08:13;14.43;;;6.57;;
74665;SDS011;63193;50.106;8.694;2022-09-25T01:10:42;14.97;;;6.13;;
74665;SDS011;63193;50.106;8.694;2022-09-25T01:13:08;12.83;;;6.43;;
74665;SDS011;63193;50.106;8.694;2022-09-25T01:15:37;14.00;;;6.00;;
74665;SDS011;63193;50.106;8.694;2022-09-25T01:21:12;12.73;;;5.87;;
74665;SDS011;63193;50.106;8.694;2022-09-25T01:30:14;10.10;;;5.07;;
74665;SDS011;63193;50.106;8.694;2022-09-25T01:32:49;11.80;;;5.70;;
74665;SDS011;63193;50.106;8.694;2022-09-25T01:35:24;11.27;;;4.97;;
74665;SDS011;63193;50.106;8.694;2022-09-25T01:38:21;8.70;;;4.80;;
74665;SDS011;63193;50.106;8.694;2022-09-25T01:41:09;8.70;;;4.33;;
74665;SDS011;63193;50.106;8.694;2022-09-25T01:43:43;10.97;;;4.70;;
74665;SDS011;63193;50.106;8.694;2022-09-25T01:46:18;9.27;;;4.87;;
74665;SDS011;63193;50.106;8.694;2022-09-25T01:48:47;10.23;;;5.07;;
74665;SDS011;63193;50.106;8.694;2022-09-25T01:51:19;7.50;;;4.23;;
74665;SDS011;63193;50.106;8.694;2022-09-25T01:53:53;9.50;;;4.53;;
74665;SDS011;63193;50.106;8.694;2022-09-25T01:56:32;9.03;;;4.57;;
74665;SDS011;63193;50.106;8.694;2022-09-25T01:59:07;11.63;;;4.93;;
74665;SDS011;63193;50.106;8.694;2022-09-25T02:01:40;11.40;;;5.23;;
74665;SDS011;63193;50.106;8.694;2022-09-25T02:04:09;10.73;;;5.37;;
74665;SDS011;63193;50.106;8.694;2022-09-25T02:06:40;13.33;;;6.63;;
74665;SDS011;63193;50.106;8.694;2022-09-25T02:09:16;11.53;;;5.20;;
74665;SDS011;63193;50.106;8.694;2022-09-25T02:11:52;12.57;;;4.97;;
74665;SDS011;63193;50.106;8.694;2022-09-25T02:14:22;13.63;;;6.37;;
74665;SDS011;63193;50.106;8.694;2022-09-25T02:16:53;16.47;;;6.40;;
74665;SDS011;63193;50.106;8.694;2022-09-25T02:19:21;15.40;;;7.60;;
74665;SDS011;63193;50.106;8.694;2022-09-25T02:22:18;12.40;;;5.77;;
74665;SDS011;63193;50.106;8.694;2022-09-25T02:24:51;13.97;;;6.17;;
74665;SDS011;63193;50.106;8.694;2022-09-25T02:27:25;17.57;;;6.90;;
74665;SDS011;63193;50.106;8.694;2022-09-25T02:29:51;12.63;;;5.67;;
74665;SDS011;63193;50.106;8.694;2022-09-25T02:32:18;11.57;;;5.30;;
74665;SDS011;63193;50.106;8.694;2022-09-25T02:34:49;11.20;;;5.90;;
74665;SDS011;63193;50.106;8.694;2022-09-25T02:37:16;11.67;;;5.73;;
74665;SDS011;63193;50.106;8.694;2022-09-25T02:39:43;15.57;;;6.23;;
74665;SDS011;63193;50.106;8.694;2022-09-25T02:42:25;13.27;;;6.23;;
74665;SDS011;63193;50.106;8.694;2022-09-25T02:45:45;13.60;;;6.17;;
74665;SDS011;63193;50.106;8.694;2022-09-25T02:48:27;11.00;;;5.83;;
74665;SDS011;63193;50.106;8.694;2022-09-25T02:51:14;12.80;;;6.33;;
74665;SDS011;63193;50.106;8.694;2022-09-25T02:53:54;12.93;;;6.43;;
74665;SDS011;63193;50.106;8.694;2022-09-25T02:59:10;14.33;;;6.93;;
74665;SDS011;63193;50.106;8.694;2022-09-25T03:01:42;17.43;;;7.97;;
74665;SDS011;63193;50.106;8.694;2022-09-25T03:04:10;14.83;;;7.53;;
74665;SDS011;63193;50.106;8.694;2022-09-25T03:06:38;16.90;;;8.00;;
74665;SDS011;63193;50.106;8.694;2022-09-25T03:09:04;18.33;;;7.90;;
74665;SDS011;63193;50.106;8.694;2022-09-25T03:11:34;13.90;;;7.13;;
74665;SDS011;63193;50.106;8.694;2022-09-25T03:14:04;17.07;;;8.07;;
74665;SDS011;63193;50.106;8.694;2022-09-25T03:16:52;14.80;;;8.37;;
74665;SDS011;63193;50.106;8.694;2022-09-25T03:19:19;14.13;;;7.50;;
74665;SDS011;63193;50.106;8.694;2022-09-25T03:21:44;17.03;;;8.67;;
74665;SDS011;63193;50.106;8.694;2022-09-25T03:24:11;19.50;;;8.83;;
74665;SDS011;63193;50.106;8.694;2022-09-25T03:26:37;16.33;;;7.77;;
74665;SDS011;63193;50.106;8.694;2022-09-25T03:29:02;14.63;;;7.83;;
74665;SDS011;63193;50.106;8.694;2022-09-25T03:31:28;17.40;;;8.93;;
74665;SDS011;63193;50.106;8.694;2022-09-25T03:33:54;15.47;;;7.43;;
74665;SDS011;63193;50.106;8.694;2022-09-25T03:36:21;20.20;;;8.20;;
74665;SDS011;63193;50.106;8.694;2022-09-25T03:38:49;15.17;;;7.53;;
74665;SDS011;63193;50.106;8.694;2022-09-25T03:41:16;19.40;;;8.67;;
74665;SDS011;63193;50.106;8.694;2022-09-25T03:43:45;17.37;;;8.27;;
74665;SDS011;63193;50.106;8.694;2022-09-25T03:46:13;17.97;;;8.40;;
74665;SDS011;63193;50.106;8.694;2022-09-25T03:48:39;16.17;;;7.63;;
74665;SDS011;63193;50.106;8.694;2022-09-25T03:51:05;20.53;;;9.03;;
74665;SDS011;63193;50.106;8.694;2022-09-25T03:53:31;14.20;;;7.33;;
74665;SDS011;63193;50.106;8.694;2022-09-25T03:56:01;17.77;;;8.63;;
74665;SDS011;63193;50.106;8.694;2022-09-25T03:58:28;17.70;;;8.30;;
74665;SDS011;63193;50.106;8.694;2022-09-25T04:00:54;14.47;;;7.53;;
74665;SDS011;63193;50.106;8.694;2022-09-25T04:03:21;16.80;;;7.37;;
74665;SDS011;63193;50.106;8.694;2022-09-25T04:05:54;16.20;;;8.33;;
74665;SDS011;63193;50.106;8.694;2022-09-25T04:08:21;19.53;;;8.97;;
74665;SDS011;63193;50.106;8.694;2022-09-25T04:10:49;17.67;;;8.50;;
74665;SDS011;63193;50.106;8.694;2022-09-25T04:13:15;17.23;;;8.23;;
74665;SDS011;63193;50.106;8.694;2022-09-25T04:15:41;17.27;;;8.23;;
74665;SDS011;63193;50.106;8.694;2022-09-25T04:18:07;14.77;;;6.70;;
74665;SDS011;63193;50.106;8.694;2022-09-25T04:20:33;14.17;;;6.60;;
74665;SDS011;63193;50.106;8.694;2022-09-25T04:22:59;17.67;;;7.83;;
74665;SDS011;63193;50.106;8.694;2022-09-25T04:25:25;14.33;;;7.00;;
74665;SDS011;63193;50.106;8.694;2022-09-25T04:27:52;15.87;;;6.97;;
74665;SDS011;63193;50.106;8.694;2022-09-25T04:30:22;14.13;;;7.33;;
74665;SDS011;63193;50.106;8.694;2022-09-25T04:32:49;16.23;;;7.13;;
74665;SDS011;63193;50.106;8.694;2022-09-25T04:35:33;17.50;;;7.17;;
74665;SDS011;63193;50.106;8.694;2022-09-25T04:37:59;21.57;;;7.77;;
74665;SDS011;63193;50.106;8.694;2022-09-25T04:40:25;14.10;;;6.93;;
74665;SDS011;63193;50.106;8.694;2022-09-25T04:42:55;14.33;;;6.90;;
74665;SDS011;63193;50.106;8.694;2022-09-25T04:45:21;13.10;;;6.63;;
74665;SDS011;63193;50.106;8.694;2022-09-25T04:47:47;14.13;;;6.43;;
74665;SDS011;63193;50.106;8.694;2022-09-25T04:50:12;18.17;;;6.57;;
74665;SDS011;63193;50.106;8.694;2022-09-25T04:52:38;15.07;;;6.80;;
74665;SDS011;63193;50.106;8.694;2022-09-25T04:55:04;14.00;;;6.17;;
74665;SDS011;63193;50.106;8.694;2022-09-25T04:57:30;13.67;;;6.03;;
74665;SDS011;63193;50.106;8.694;2022-09-25T04:59:57;15.93;;;6.73;;
74665;SDS011;63193;50.106;8.694;2022-09-25T05:02:26;14.43;;;5.80;;
74665;SDS011;63193;50.106;8.694;2022-09-25T05:04:52;13.53;;;5.87;;
74665;SDS011;63193;50.106;8.694;2022-09-25T05:07:17;10.37;;;5.77;;
74665;SDS011;63193;50.106;8.694;2022-09-25T05:09:43;14.63;;;6.50;;
74665;SDS011;63193;50.106;8.694;2022-09-25T05:12:08;14.00;;;6.13;;
74665;SDS011;63193;50.106;8.694;2022-09-25T05:14:34;12.80;;;6.00;;
74665;SDS011;63193;50.106;8.694;2022-09-25T05:17:00;13.40;;;5.67;;
74665;SDS011;63193;50.106;8.694;2022-09-25T05:19:25;10.57;;;4.60;;
74665;SDS011;63193;50.106;8.694;2022-09-25T05:21:52;15.57;;;5.67;;
74665;SDS011;63193;50.106;8.694;2022-09-25T05:24:18;13.43;;;5.90;;
74665;SDS011;63193;50.106;8.694;2022-09-25T05:26:43;13.97;;;5.80;;
74665;SDS011;63193;50.106;8.694;2022-09-25T05:29:09;14.83;;;5.97;;
74665;SDS011;63193;50.106;8.694;2022-09-25T05:31:35;12.27;;;5.07;;
74665;SDS011;63193;50.106;8.694;2022-09-25T05:34:01;16.07;;;5.93;;
74665;SDS011;63193;50.106;8.694;2022-09-25T05:36:26;12.77;;;5.50;;
74665;SDS011;63193;50.106;8.694;2022-09-25T05:38:52;15.33;;;5.93;;
74665;SDS011;63193;50.106;8.694;2022-09-25T05:41:18;14.80;;;5.30;;
74665;SDS011;63193;50.106;8.694;2022-09-25T05:43:44;12.60;;;5.67;;
74665;SDS011;63193;50.106;8.694;2022-09-25T05:46:11;16.50;;;7.27;;
74665;SDS011;63193;50.106;8.694;2022-09-25T05:48:38;12.40;;;6.27;;
74665;SDS011;63193;50.106;8.694;2022-09-25T05:51:04;14.23;;;6.60;;
74665;SDS011;63193;50.106;8.694;2022-09-25T05:53:29;12.83;;;5.37;;
74665;SDS011;63193;50.106;8.694;2022-09-25T05:55:56;11.37;;;4.87;;
74665;SDS011;63193;50.106;8.694;2022-09-25T05:58:24;14.70;;;6.23;;
74665;SDS011;63193;50.106;8.694;2022-09-25T06:00:50;15.23;;;6.13;;
74665;SDS011;63193;50.106;8.694;2022-09-25T06:03:16;17.63;;;6.43;;
74665;SDS011;63193;50.106;8.694;2022-09-25T06:05:42;12.57;;;5.50;;
74665;SDS011;63193;50.106;8.694;2022-09-25T06:08:11;13.53;;;6.33;;
74665;SDS011;63193;50.106;8.694;2022-09-25T06:10:37;13.77;;;6.27;;
74665;SDS011;63193;50.106;8.694;2022-09-25T06:13:03;18.30;;;7.70;;
74665;SDS011;63193;50.106;8.694;2022-09-25T06:15:32;12.90;;;6.07;;
74665;SDS011;63193;50.106;8.694;2022-09-25T06:18:05;16.10;;;6.50;;
74665;SDS011;63193;50.106;8.694;2022-09-25T06:20:32;16.13;;;6.10;;
74665;SDS011;63193;50.106;8.694;2022-09-25T06:22:58;13.63;;;6.03;;
74665;SDS011;63193;50.106;8.694;2022-09-25T06:25:26;16.53;;;7.47;;
74665;SDS011;63193;50.106;8.694;2022-09-25T06:27:58;16.80;;;7.10;;
74665;SDS011;63193;50.106;8.694;2022-09-25T06:30:25;16.33;;;6.83;;
74665;SDS011;63193;50.106;8.694;2022-09-25T06:32:55;18.43;;;7.40;;
74665;SDS011;63193;50.106;8.694;2022-09-25T06:35:22;15.17;;;6.50;;
74665;SDS011;63193;50.106;8.694;2022-09-25T06:37:47;13.37;;;6.80;;
74665;SDS011;63193;50.106;8.694;2022-09-25T06:40:13;15.00;;;6.23;;
74665;SDS011;63193;50.106;8.694;2022-09-25T06:42:38;14.43;;;6.50;;
74665;SDS011;63193;50.106;8.694;2022-09-25T06:45:04;13.80;;;6.87;;
74665;SDS011;63193;50.106;8.694;2022-09-25T06:47:30;18.20;;;6.43;;
74665;SDS011;63193;50.106;8.694;2022-09-25T06:49:55;17.13;;;7.07;;
74665;SDS011;63193;50.106;8.694;2022-09-25T06:52:21;17.67;;;7.53;;
74665;SDS011;63193;50.106;8.694;2022-09-25T06:54:47;17.80;;;7.53;;
74665;SDS011;63193;50.106;8.694;2022-09-25T06:57:13;17.10;;;7.13;;
74665;SDS011;63193;50.106;8.694;2022-09-25T06:59:38;22.20;;;7.90;;
74665;SDS011;63193;50.106;8.694;2022-09-25T07:02:04;17.00;;;7.53;;
74665;SDS011;63193;50.106;8.694;2022-09-25T07:04:48;17.50;;;7.83;;
74665;SDS011;63193;50.106;8.694;2022-09-25T07:07:15;20.07;;;7.17;;
74665;SDS011;63193;50.106;8.694;2022-09-25T07:09:44;15.30;;;7.37;;
74665;SDS011;63193;50.106;8.694;2022-09-25T07:12:12;20.63;;;8.47;;
74665;SDS011;63193;50.106;8.694;2022-09-25T07:14:38;24.33;;;9.10;;
74665;SDS011;63193;50.106;8.694;2022-09-25T07:17:05;19.77;;;8.30;;
74665;SDS011;63193;50.106;8.694;2022-09-25T07:19:32;18.77;;;7.90;;
74665;SDS011;63193;50.106;8.694;2022-09-25T07:21:57;15.97;;;6.90;;
74665;SDS011;63193;50.106;8.694;2022-09-25T07:24:23;18.83;;;8.07;;
74665;SDS011;63193;50.106;8.694;2022-09-25T07:26:49;18.47;;;7.23;;
74665;SDS011;63193;50.106;8.694;2022-09-25T07:29:16;19.00;;;8.27;;
74665;SDS011;63193;50.106;8.694;2022-09-25T07:31:42;18.10;;;7.50;;
74665;SDS011;63193;50.106;8.694;2022-09-25T07:34:08;21.50;;;8.90;;
74665;SDS011;63193;50.106;8.694;2022-09-25T07:36:34;22.37;;;8.30;;
74665;SDS011;63193;50.106;8.694;2022-09-25T07:39:04;18.03;;;6.73;;
74665;SDS011;63193;50.106;8.694;2022-09-25T07:41:30;16.93;;;6.70;;
74665;SDS011;63193;50.106;8.694;2022-09-25T07:43:56;17.10;;;7.40;;
74665;SDS011;63193;50.106;8.694;2022-09-25T07:46:23;16.30;;;7.20;;
74665;SDS011;63193;50.106;8.694;2022-09-25T07:48:50;17.37;;;7.50;;
74665;SDS011;63193;50.106;8.694;2022-09-25T07:51:15;17.50;;;7.47;;
74665;SDS011;63193;50.106;8.694;2022-09-25T07:53:41;15.53;;;7.23;;
74665;SDS011;63193;50.106;8.694;2022-09-25T07:56:08;17.63;;;7.73;;
74665;SDS011;63193;50.106;8.694;2022-09-25T07:58:35;17.93;;;7.00;;
74665;SDS011;63193;50.106;8.694;2022-09-25T08:01:02;20.60;;;7.37;;
74665;SDS011;63193;50.106;8.694;2022-09-25T08:03:29;19.43;;;6.77;;
74665;SDS011;63193;50.106;8.694;2022-09-25T08:05:58;18.67;;;6.30;;
74665;SDS011;63193;50.106;8.694;2022-09-25T08:08:35;18.33;;;6.83;;
74665;SDS011;63193;50.106;8.694;2022-09-25T08:11:03;16.60;;;6.77;;
74665;SDS011;63193;50.106;8.694;2022-09-25T08:13:33;19.73;;;7.23;;
74665;SDS011;63193;50.106;8.694;2022-09-25T08:16:06;15.60;;;6.83;;
74665;SDS011;63193;50.106;8.694;2022-09-25T08:18:37;19.87;;;6.67;;
74665;SDS011;63193;50.106;8.694;2022-09-25T08:21:05;16.73;;;7.23;;
74665;SDS011;63193;50.106;8.694;2022-09-25T08:23:31;17.43;;;7.53;;
74665;SDS011;63193;50.106;8.694;2022-09-25T08:25:57;18.33;;;7.07;;
74665;SDS011;63193;50.106;8.694;2022-09-25T08:28:23;15.43;;;6.33;;
74665;SDS011;63193;50.106;8.694;2022-09-25T08:30:49;14.90;;;7.03;;
74665;SDS011;63193;50.106;8.694;2022-09-25T08:33:14;15.70;;;6.53;;
74665;SDS011;63193;50.106;8.694;2022-09-25T08:35:40;21.53;;;8.53;;
74665;SDS011;63193;50.106;8.694;2022-09-25T08:38:06;16.80;;;6.30;;
74665;SDS011;63193;50.106;8.694;2022-09-25T08:40:33;16.10;;;7.50;;
74665;SDS011;63193;50.106;8.694;2022-09-25T08:43:09;17.40;;;7.33;;
74665;SDS011;63193;50.106;8.694;2022-09-25T08:45:42;16.13;;;7.73;;
74665;SDS011;63193;50.106;8.694;2022-09-25T08:48:29;12.80;;;5.83;;
74665;SDS011;63193;50.106;8.694;2022-09-25T08:51:17;14.20;;;6.03;;
74665;SDS011;63193;50.106;8.694;2022-09-25T08:53:42;15.70;;;6.67;;
74665;SDS011;63193;50.106;8.694;2022-09-25T08:56:10;13.83;;;6.03;;
74665;SDS011;63193;50.106;8.694;2022-09-25T08:58:49;13.80;;;6.13;;
74665;SDS011;63193;50.106;8.694;2022-09-25T09:01:20;13.93;;;6.03;;
74665;SDS011;63193;50.106;8.694;2022-09-25T09:04:05;15.37;;;6.40;;
74665;SDS011;63193;50.106;8.694;2022-09-25T09:06:38;13.83;;;5.87;;
74665;SDS011;63193;50.106;8.694;2022-09-25T09:11:43;11.10;;;4.40;;
74665;SDS011;63193;50.106;8.694;2022-09-25T09:14:17;13.53;;;5.87;;
74665;SDS011;63193;50.106;8.694;2022-09-25T09:16:46;11.03;;;5.37;;
74665;SDS011;63193;50.106;8.694;2022-09-25T09:19:24;14.53;;;5.80;;
74665;SDS011;63193;50.106;8.694;2022-09-25T09:21:55;11.73;;;5.57;;
74665;SDS011;63193;50.106;8.694;2022-09-25T09:25:04;17.53;;;7.07;;
74665;SDS011;63193;50.106;8.694;2022-09-25T09:27:49;12.90;;;5.37;;
74665;SDS011;63193;50.106;8.694;2022-09-25T09:30:41;12.90;;;5.60;;
74665;SDS011;63193;50.106;8.694;2022-09-25T09:39:27;16.03;;;6.73;;
74665;SDS011;63193;50.106;8.694;2022-09-25T09:42:04;15.43;;;7.33;;
74665;SDS011;63193;50.106;8.694;2022-09-25T09:45:02;14.00;;;6.10;;
74665;SDS011;63193;50.106;8.694;2022-09-25T09:48:04;17.20;;;6.77;;
74665;SDS011;63193;50.106;8.694;2022-09-25T09:50:44;17.43;;;7.23;;
74665;SDS011;63193;50.106;8.694;2022-09-25T09:53:58;15.43;;;6.40;;
74665;SDS011;63193;50.106;8.694;2022-09-25T09:56:14;13.83;;;6.10;;
74665;SDS011;63193;50.106;8.694;2022-09-25T09:58:50;13.33;;;6.40;;
74665;SDS011;63193;50.106;8.694;2022-09-25T10:01:20;11.50;;;6.23;;
74665;SDS011;63193;50.106;8.694;2022-09-25T10:03:50;16.87;;;7.20;;
74665;SDS011;63193;50.106;8.694;2022-09-25T10:06:31;15.57;;;6.20;;
74665;SDS011;63193;50.106;8.694;2022-09-25T10:09:01;13.93;;;6.67;;
74665;SDS011;63193;50.106;8.694;2022-09-25T10:11:26;14.90;;;6.17;;
74665;SDS011;63193;50.106;8.694;2022-09-25T10:13:55;13.57;;;6.47;;
74665;SDS011;63193;50.106;8.694;2022-09-25T10:16:24;14.57;;;6.73;;
74665;SDS011;63193;50.106;8.694;2022-09-25T10:19:35;12.90;;;5.60;;
74665;SDS011;63193;50.106;8.694;2022-09-25T10:21:48;13.87;;;6.50;;
74665;SDS011;63193;50.106;8.694;2022-09-25T10:27:21;16.07;;;6.00;;
74665;SDS011;63193;50.106;8.694;2022-09-25T10:30:00;14.17;;;6.47;;
74665;SDS011;63193;50.106;8.694;2022-09-25T10:38:33;13.00;;;5.90;;
74665;SDS011;63193;50.106;8.694;2022-09-25T10:41:14;17.57;;;6.63;;
74665;SDS011;63193;50.106;8.694;2022-09-25T10:43:49;9.77;;;5.10;;
74665;SDS011;63193;50.106;8.694;2022-09-25T10:46:35;11.47;;;4.73;;
74665;SDS011;63193;50.106;8.694;2022-09-25T10:49:23;12.43;;;5.17;;
74665;SDS011;63193;50.106;8.694;2022-09-25T10:52:10;11.67;;;5.10;;
74665;SDS011;63193;50.106;8.694;2022-09-25T10:54:41;10.20;;;5.37;;
74665;SDS011;63193;50.106;8.694;2022-09-25T10:57:18;8.60;;;4.73;;
74665;SDS011;63193;50.106;8.694;2022-09-25T10:59:57;9.00;;;5.13;;
74665;SDS011;63193;50.106;8.694;2022-09-25T11:02:34;13.00;;;4.30;;
74665;SDS011;63193;50.106;8.694;2022-09-25T11:05:05;7.83;;;4.57;;
74665;SDS011;63193;50.106;8.694;2022-09-25T11:07:39;11.30;;;5.10;;
74665;SDS011;63193;50.106;8.694;2022-09-25T11:10:23;8.50;;;4.00;;
74665;SDS011;63193;50.106;8.694;2022-09-25T11:12:54;13.77;;;4.50;;
74665;SDS011;63193;50.106;8.694;2022-09-25T11:15:22;9.57;;;4.10;;
74665;SDS011;63193;50.106;8.694;2022-09-25T11:17:52;8.37;;;4.23;;
74665;SDS011;63193;50.106;8.694;2022-09-25T11:20:26;12.40;;;4.00;;
74665;SDS011;63193;50.106;8.694;2022-09-25T11:25:50;8.30;;;3.17;;
74665;SDS011;63193;50.106;8.694;2022-09-25T11:28:37;7.77;;;2.90;;
74665;SDS011;63193;50.106;8.694;2022-09-25T11:31:27;6.10;;;2.50;;
74665;SDS011;63193;50.106;8.694;2022-09-25T11:37:26;4.60;;;2.60;;
74665;SDS011;63193;50.106;8.694;2022-09-25T11:40:38;6.10;;;2.43;;
74665;SDS011;63193;50.106;8.694;2022-09-25T11:43:32;7.30;;;2.67;;
74665;SDS011;63193;50.106;8.694;2022-09-25T11:46:06;6.60;;;2.47;;
74665;SDS011;63193;50.106;8.694;2022-09-25T11:52:01;3.67;;;1.97;;
74665;SDS011;63193;50.106;8.694;2022-09-25T11:54:56;4.57;;;1.70;;
74665;SDS011;63193;50.106;8.694;2022-09-25T12:00:54;3.47;;;1.83;;
74665;SDS011;63193;50.106;8.694;2022-09-25T12:03:50;4.60;;;1.80;;
74665;SDS011;63193;50.106;8.694;2022-09-25T12:06:50;5.33;;;1.83;;
74665;SDS011;63193;50.106;8.694;2022-09-25T12:16:24;3.20;;;1.87;;
74665;SDS011;63193;50.106;8.694;2022-09-25T12:28:03;16.33;;;2.03;;
74665;SDS011;63193;50.106;8.694;2022-09-25T12:30:52;8.73;;;1.77;;
74665;SDS011;63193;50.106;8.694;2022-09-25T12:33:55;7.60;;;1.30;;
74665;SDS011;63193;50.106;8.694;2022-09-25T12:36:55;4.40;;;1.30;;
74665;SDS011;63193;50.106;8.694;2022-09-25T12:39:42;3.20;;;1.53;;
74665;SDS011;63193;50.106;8.694;2022-09-25T12:42:36;4.57;;;1.80;;
74665;SDS011;63193;50.106;8.694;2022-09-25T12:45:26;5.67;;;1.53;;
74665;SDS011;63193;50.106;8.694;2022-09-25T12:51:21;3.83;;;1.30;;
74665;SDS011;63193;50.106;8.694;2022-09-25T12:54:05;3.90;;;1.43;;
74665;SDS011;63193;50.106;8.694;2022-09-25T12:57:00;2.10;;;1.20;;
74665;SDS011;63193;50.106;8.694;2022-09-25T12:59:46;4.47;;;1.37;;
74665;SDS011;63193;50.106;8.694;2022-09-25T13:06:09;7.00;;;1.67;;
74665;SDS011;63193;50.106;8.694;2022-09-25T13:08:12;1.90;;;0.90;;
74665;SDS011;63193;50.106;8.694;2022-09-25T13:11:04;2.20;;;1.30;;
74665;SDS011;63193;50.106;8.694;2022-09-25T13:13:41;2.27;;;1.27;;
74665;SDS011;63193;50.106;8.694;2022-09-25T13:16:10;6.80;;;1.97;;
74665;SDS011;63193;50.106;8.694;2022-09-25T13:18:40;2.30;;;1.10;;
74665;SDS011;63193;50.106;8.694;2022-09-25T13:21:40;3.27;;;1.53;;
74665;SDS011;63193;50.106;8.694;2022-09-25T13:24:15;2.83;;;1.37;;
74665;SDS011;63193;50.106;8.694;2022-09-25T13:26:52;2.57;;;1.27;;
74665;SDS011;63193;50.106;8.694;2022-09-25T13:29:21;2.10;;;1.40;;
74665;SDS011;63193;50.106;8.694;2022-09-25T13:31:51;8.43;;;2.13;;
74665;SDS011;63193;50.106;8.694;2022-09-25T13:34:27;4.73;;;1.67;;
74665;SDS011;63193;50.106;8.694;2022-09-25T13:37:02;3.87;;;1.63;;
74665;SDS011;63193;50.106;8.694;2022-09-25T13:39:31;7.00;;;1.80;;
74665;SDS011;63193;50.106;8.694;2022-09-25T13:45:31;3.07;;;1.63;;
74665;SDS011;63193;50.106;8.694;2022-09-25T13:48:01;2.67;;;1.50;;
74665;SDS011;63193;50.106;8.694;2022-09-25T13:50:46;6.33;;;1.70;;
74665;SDS011;63193;50.106;8.694;2022-09-25T13:53:22;5.43;;;1.80;;
74665;SDS011;63193;50.106;8.694;2022-09-25T14:01:33;5.33;;;1.97;;
74665;SDS011;63193;50.106;8.694;2022-09-25T14:04:22;4.67;;;2.03;;
74665;SDS011;63193;50.106;8.694;2022-09-25T14:07:02;4.67;;;1.97;;
74665;SDS011;63193;50.106;8.694;2022-09-25T14:09:37;5.23;;;1.77;;
74665;SDS011;63193;50.106;8.694;2022-09-25T14:12:23;6.50;;;2.07;;
74665;SDS011;63193;50.106;8.694;2022-09-25T14:15:04;4.17;;;1.67;;
74665;SDS011;63193;50.106;8.694;2022-09-25T14:17:33;3.07;;;1.70;;
74665;SDS011;63193;50.106;8.694;2022-09-25T14:20:00;3.90;;;1.60;;
74665;SDS011;63193;50.106;8.694;2022-09-25T14:25:34;6.60;;;1.83;;
74665;SDS011;63193;50.106;8.694;2022-09-25T14:28:02;3.93;;;1.90;;
74665;SDS011;63193;50.106;8.694;2022-09-25T14:30:46;2.77;;;1.77;;
74665;SDS011;63193;50.106;8.694;2022-09-25T14:36:40;2.03;;;1.47;;
74665;SDS011;63193;50.106;8.694;2022-09-25T14:39:39;3.67;;;1.90;;
74665;SDS011;63193;50.106;8.694;2022-09-25T14:42:15;3.53;;;1.40;;
74665;SDS011;63193;50.106;8.694;2022-09-25T14:45:10;3.73;;;1.53;;
74665;SDS011;63193;50.106;8.694;2022-09-25T14:48:14;3.03;;;1.10;;
74665;SDS011;63193;50.106;8.694;2022-09-25T14:50:49;4.23;;;1.67;;
74665;SDS011;63193;50.106;8.694;2022-09-25T14:53:37;3.00;;;1.20;;
74665;SDS011;63193;50.106;8.694;2022-09-25T14:56:06;4.43;;;1.60;;
74665;SDS011;63193;50.106;8.694;2022-09-25T14:58:36;2.13;;;1.20;;
74665;SDS011;63193;50.106;8.694;2022-09-25T15:01:29;4.10;;;1.53;;
74665;SDS011;63193;50.106;8.694;2022-09-25T15:03:57;2.87;;;1.40;;
74665;SDS011;63193;50.106;8.694;2022-09-25T15:06:30;3.73;;;1.50;;
74665;SDS011;63193;50.106;8.694;2022-09-25T15:08:58;2.97;;;1.53;;
74665;SDS011;63193;50.106;8.694;2022-09-25T15:11:37;2.60;;;1.30;;
74665;SDS011;63193;50.106;8.694;2022-09-25T15:14:23;3.13;;;1.30;;
74665;SDS011;63193;50.106;8.694;2022-09-25T15:16:49;3.63;;;1.57;;
74665;SDS011;63193;50.106;8.694;2022-09-25T15:19:40;2.93;;;1.20;;
74665;SDS011;63193;50.106;8.694;2022-09-25T15:22:10;3.30;;;1.37;;
74665;SDS011;63193;50.106;8.694;2022-09-25T15:24:44;2.77;;;1.10;;
74665;SDS011;63193;50.106;8.694;2022-09-25T15:27:13;4.87;;;1.20;;
74665;SDS011;63193;50.106;8.694;2022-09-25T15:29:41;2.47;;;1.27;;
74665;SDS011;63193;50.106;8.694;2022-09-25T15:32:19;5.47;;;2.13;;
74665;SDS011;63193;50.106;8.694;2022-09-25T15:35:13;3.37;;;1.00;;
74665;SDS011;63193;50.106;8.694;2022-09-25T15:37:45;3.93;;;1.10;;
74665;SDS011;63193;50.106;8.694;2022-09-25T15:40:22;5.63;;;1.30;;
74665;SDS011;63193;50.106;8.694;2022-09-25T15:42:54;1.43;;;1.00;;
74665;SDS011;63193;50.106;8.694;2022-09-25T15:45:40;1.70;;;1.23;;
74665;SDS011;63193;50.106;8.694;2022-09-25T15:48:27;2.10;;;1.37;;
74665;SDS011;63193;50.106;8.694;2022-09-25T15:50:56;3.90;;;1.60;;
74665;SDS011;63193;50.106;8.694;2022-09-25T15:53:29;3.33;;;1.17;;
74665;SDS011;63193;50.106;8.694;2022-09-25T15:56:28;3.40;;;1.20;;
74665;SDS011;63193;50.106;8.694;2022-09-25T15:59:18;3.97;;;1.73;;
74665;SDS011;63193;50.106;8.694;2022-09-25T16:01:48;2.47;;;1.00;;
74665;SDS011;63193;50.106;8.694;2022-09-25T16:04:33;3.53;;;1.43;;
74665;SDS011;63193;50.106;8.694;2022-09-25T16:07:19;3.03;;;1.60;;
74665;SDS011;63193;50.106;8.694;2022-09-25T16:09:57;3.03;;;1.60;;
74665;SDS011;63193;50.106;8.694;2022-09-25T16:12:44;1.43;;;1.00;;
74665;SDS011;63193;50.106;8.694;2022-09-25T16:21:13;3.70;;;1.17;;
74665;SDS011;63193;50.106;8.694;2022-09-25T16:23:53;4.27;;;1.40;;
74665;SDS011;63193;50.106;8.694;2022-09-25T16:26:24;2.07;;;1.23;;
74665;SDS011;63193;50.106;8.694;2022-09-25T16:29:05;3.60;;;1.47;;
74665;SDS011;63193;50.106;8.694;2022-09-25T16:31:44;4.40;;;1.47;;
74665;SDS011;63193;50.106;8.694;2022-09-25T16:34:17;3.97;;;1.50;;
74665;SDS011;63193;50.106;8.694;2022-09-25T16:36:52;7.63;;;1.60;;
74665;SDS011;63193;50.106;8.694;2022-09-25T16:39:22;3.70;;;2.07;;
74665;SDS011;63193;50.106;8.694;2022-09-25T16:41:49;3.93;;;1.53;;